Latest Weather Observations for Amberley

IDQ60801

Issued at 9:35 am EST Wednesday 3 September 2014 (issued every 30 minutes, with the page automatically refreshed every 10 minutes)

About weather observations | Map of weather stations | Latest weather observations for QLD | Other Formats
Station Details ID: 040004 Name: AMBERLEY AMO Lat: -27.63 Lon: 152.71 Height: 24.2 m
Data from the previous 72 hours. | See also: Recent months at Amberley
Date/Time
EST
Temp
°C
App
Temp
°C
Dew
Point
Rel
Hum
%
Delta-T
°C
Wind Press
QNH
hPa
Press
MSL
hPa
Rain
since 9 am
mm
Dir
 
Spd
km/h
Gust
km/h
Spd
kts
Gust
kts
03/09:30am 18.1 10.1 -2.0 25 8.4 W 30 44 16 24 1012.4 - 0.0
03/09:00am 17.2 9.2 -2.6 26 8.1 W 30 41 16 22 1012.4 1012.3 0.0
03/08:32am 16.4 8.0 -2.6 27 7.7 W 32 50 17 27 1012.4 - 0.0
03/08:30am 16.3 7.9 -2.8 27 7.7 W 32 46 17 25 1012.4 - 0.0
03/08:00am 15.7 8.8 -2.7 28 7.4 W 24 33 13 18 1013.0 - 0.0
03/07:30am 14.6 8.9 -3.7 28 7.1 W 17 22 9 12 1013.0 - 0.0
03/07:00am 13.4 6.9 -2.3 33 6.2 W 22 33 12 18 1012.7 - 0.0
03/06:30am 12.1 5.1 -0.8 41 5.2 W 26 32 14 17 1012.6 - 0.0
03/06:00am 11.9 3.8 -0.4 42 5.0 WSW 32 44 17 24 1012.3 1012.2 0.0
03/05:30am 11.2 4.7 0.5 47 4.4 W 24 32 13 17 1012.2 - 0.0
03/05:00am 11.6 7.6 0.2 45 4.7 WSW 11 17 6 9 1012.0 - 0.0
03/04:30am 12.0 6.7 -0.9 41 5.2 W 17 28 9 15 1011.2 - 0.0
03/04:00am 12.9 8.3 -0.9 38 5.6 W 13 20 7 11 1011.6 - 0.0
03/03:30am 12.8 7.8 -1.4 37 5.7 WSW 15 20 8 11 1011.7 - 0.0
03/03:00am 12.3 7.9 0.2 43 5.0 W 13 19 7 10 1011.9 1011.8 0.0
03/02:30am 12.6 8.5 -0.3 41 5.3 W 11 17 6 9 1012.3 - 0.0
03/02:00am 12.3 8.9 -0.5 41 5.2 W 7 17 4 9 1012.7 - 0.0
03/01:30am 13.5 9.7 -0.6 38 5.8 W 9 15 5 8 1012.9 - 0.0
03/01:00am 14.3 9.3 -1.1 34 6.3 WSW 15 24 8 13 1013.1 - 0.0
03/12:30am 14.2 9.1 -1.6 33 6.4 WSW 15 22 8 12 1013.3 - 0.0
03/12:00am 14.5 9.5 -1.4 33 6.5 WSW 15 22 8 12 1013.3 1013.2 0.0
 
Date/Time
EST
Temp
°C
App
Temp
°C
Dew
Point
Rel
Hum
%
Delta-T
°C
Wind Press
QNH
hPa
Press
MSL
hPa
Rain
since 9 am
mm
Dir
 
Spd
km/h
Gust
km/h
Spd
kts
Gust
kts
02/11:30pm 14.6 10.0 -0.9 34 6.4 W 13 19 7 10 1013.1 - 0.0
02/11:00pm 15.1 9.1 -1.9 31 6.9 W 20 33 11 18 1013.2 - 0.0
02/10:30pm 15.5 9.5 -1.5 31 7.0 W 20 30 11 16 1013.1 - 0.0
02/10:00pm 16.0 10.0 -1.8 29 7.3 W 20 32 11 17 1013.2 - 0.0
02/09:30pm 16.6 9.4 -1.8 28 7.6 W 26 33 14 18 1013.1 - 0.0
02/09:00pm 17.5 11.4 -2.0 26 8.1 WSW 20 28 11 15 1013.0 1012.9 0.0
02/08:30pm 18.1 11.8 -1.2 27 8.2 WSW 22 28 12 15 1012.8 - 0.0
02/08:00pm 18.7 11.4 0.3 29 8.1 WSW 28 37 15 20 1012.6 - 0.0
02/07:30pm 19.5 11.7 1.4 30 8.2 WSW 32 41 17 22 1011.8 - 0.0
02/07:00pm 20.3 13.7 -0.7 24 9.2 W 24 37 13 20 1011.1 - 0.0
02/06:30pm 20.7 14.6 0.4 26 9.1 W 22 33 12 18 1010.5 - 0.0
02/06:17pm 20.9 13.7 0.8 26 9.1 W 28 50 15 27 1010.3 - 0.0
02/05:30pm 22.2 15.2 1.9 26 9.5 W 28 37 15 20 1009.4 - 0.0
02/05:00pm 23.3 15.3 0.4 22 10.5 WSW 32 43 17 23 1008.8 - 0.0
02/04:45pm 23.9 15.3 0.1 20 10.9 WSW 35 54 19 29 1008.6 - 0.0
02/04:30pm 24.5 15.5 -0.1 19 11.3 WSW 37 54 20 29 1008.2 - 0.0
02/04:00pm 25.5 16.1 -2.5 15 12.4 WSW 37 56 20 30 1007.6 - 0.0
02/03:43pm 25.9 15.6 -3.9 14 12.9 WSW 41 59 22 32 1007.3 - 0.0
02/03:30pm 26.4 16.1 -4.1 13 13.2 WSW 41 54 22 29 1007.1 - 0.0
02/03:25pm 26.7 16.8 -3.7 13 13.3 WSW 39 54 21 29 1006.8 - 0.0
02/03:03pm 28.3 19.7 -2.7 13 13.9 W 33 56 18 30 1006.3 - 0.0
02/03:00pm 28.4 19.6 -4.0 12 14.3 W 33 46 18 25 1006.1 1006.0 0.0
02/02:37pm 28.0 19.1 -2.1 14 13.7 WNW 35 54 19 29 1006.1 - 0.0
02/02:30pm 29.2 20.3 -2.2 13 14.3 WNW 35 48 19 26 1006.2 - 0.0
02/02:10pm 29.3 21.8 -1.5 13 14.3 WNW 28 52 15 28 1006.3 - 0.0
02/02:00pm 28.8 23.7 0.8 16 13.5 NW 17 28 9 15 1006.5 - 0.0
02/01:30pm 28.7 25.6 5.6 23 12.1 NW 11 20 6 11 1007.1 - 0.0
02/01:00pm 27.1 23.7 5.7 25 11.1 N 13 20 7 11 1007.9 - 0.0
02/12:30pm 25.5 21.1 6.5 29 9.9 NW 19 28 10 15 1009.0 - 0.0
02/12:00pm 25.3 20.6 6.2 29 9.9 NW 20 32 11 17 1009.9 1009.8 0.0
02/11:30am 23.7 19.1 6.7 33 8.8 N 20 32 11 17 1010.4 - 0.0
02/11:00am 23.0 18.2 7.5 37 8.1 NNW 22 33 12 18 1011.3 - 0.0
02/10:30am 21.2 16.8 7.4 41 7.1 NNW 20 30 11 16 1012.1 - 0.0
02/10:00am 19.2 15.1 7.7 47 5.9 NW 19 28 10 15 1012.8 - 0.0
02/09:30am 18.3 16.1 7.9 50 5.3 NNW 9 13 5 7 1013.0 - 0.0
02/09:00am 17.5 15.6 9.0 57 4.4 NNW 9 13 5 7 1013.6 1013.5 0.0
02/08:30am 15.4 15.6 11.9 79 1.9 NNW 2 7 1 4 1013.6 - 0.0
02/08:00am 13.6 13.0 11.7 88 1.0 SSW 6 9 3 5 1013.9 - 0.0
02/07:30am 12.0 12.3 10.8 92 0.6 CALM 0 0 0 0 1014.0 - 0.0
02/07:00am 10.9 10.6 10.1 95 0.4 SSW 2 7 1 4 1014.0 - 0.0
02/06:30am 10.5 10.5 9.9 96 0.3 CALM 0 6 0 3 1014.0 - 0.0
02/06:00am 9.4 9.1 8.8 96 0.3 CALM 0 6 0 3 1014.0 1013.9 0.0
02/05:30am 9.4 9.1 8.6 95 0.4 CALM 0 0 0 0 1013.9 - 0.0
02/05:24am 9.0 8.7 8.6 97 0.2 CALM 0 0 0 0 1013.8 - 0.0
02/05:00am 10.2 10.1 9.6 96 0.3 CALM 0 0 0 0 1013.8 - 0.0
02/04:43am 10.5 10.5 9.9 96 0.3 CALM 0 0 0 0 1013.7 - 0.0
02/04:30am 10.3 10.3 9.9 97 0.2 CALM 0 0 0 0 1013.6 - 0.0
02/04:00am 10.1 10.0 9.5 96 0.3 CALM 0 0 0 0 1013.7 - 0.0
02/03:47am 10.2 10.1 9.4 95 0.4 CALM 0 0 0 0 1013.8 - 0.0
02/03:45am 10.1 10.0 9.3 95 0.4 CALM 0 0 0 0 1013.8 - 0.0
02/03:30am 10.1 10.0 9.5 96 0.3 CALM 0 0 0 0 1013.8 - 0.0
02/03:00am 10.0 9.9 9.4 96 0.3 CALM 0 0 0 0 1013.9 1013.8 0.0
02/02:30am 10.4 10.3 9.6 95 0.4 CALM 0 0 0 0 1014.3 - 0.0
02/02:00am 10.3 10.3 9.7 96 0.3 CALM 0 4 0 2 1014.3 - 0.0
02/01:30am 10.2 8.8 9.4 95 0.4 NW 7 11 4 6 1014.7 - 0.0
02/01:29am 10.2 8.8 9.4 95 0.4 NW 7 11 4 6 1014.7 - 0.0
02/01:06am 11.1 10.6 10.7 97 0.2 W 4 13 2 7 1014.9 - 0.0
02/01:00am 12.9 12.3 11.6 92 0.7 SW 6 9 3 5 1015.0 - 0.0
02/12:30am 10.7 9.1 10.1 96 0.3 SW 9 13 5 7 1015.3 - 0.0
02/12:00am 11.8 12.1 10.8 94 0.5 CALM 0 0 0 0 1015.5 1015.4 0.0
 
Date/Time
EST
Temp
°C
App
Temp
°C
Dew
Point
Rel
Hum
%
Delta-T
°C
Wind Press
QNH
hPa
Press
MSL
hPa
Rain
since 9 am
mm
Dir
 
Spd
km/h
Gust
km/h
Spd
kts
Gust
kts
01/11:30pm 11.6 11.9 10.8 95 0.4 CALM 0 0 0 0 1015.5 - 0.0
01/11:00pm 11.9 12.2 10.9 94 0.5 CALM 0 0 0 0 1015.5 - 0.0
01/10:30pm 12.3 11.4 11.5 95 0.4 SW 7 9 4 5 1015.3 - 0.0
01/10:00pm 11.9 10.1 10.7 92 0.6 SW 11 13 6 7 1015.3 - 0.0
01/09:30pm 13.0 12.7 11.3 89 0.9 ENE 4 9 2 5 1015.3 - 0.0
01/09:00pm 16.4 15.9 13.7 84 1.5 E 9 13 5 7 1015.3 1015.2 0.0
01/08:30pm 16.9 16.0 13.7 81 1.8 E 11 13 6 7 1015.2 - 0.0
01/08:00pm 17.7 17.2 13.8 78 2.2 ENE 9 11 5 6 1015.2 - 0.0
01/07:30pm 18.0 16.7 13.8 76 2.4 ENE 13 17 7 9 1015.2 - 0.0
01/07:00pm 19.4 17.7 13.6 69 3.3 ENE 15 19 8 10 1015.0 - 0.0
01/06:30pm 20.4 18.4 12.8 61 4.3 ENE 15 19 8 10 1014.7 - 0.0
01/06:00pm 21.1 18.3 11.3 53 5.4 ENE 17 24 9 13 1014.3 1014.2 0.0
01/05:30pm 22.1 19.2 12.4 54 5.5 NE 19 26 10 14 1014.3 - 0.0
01/05:00pm 23.2 20.3 12.3 50 6.2 NE 19 26 10 14 1014.3 - 0.0
01/04:30pm 25.4 21.5 3.5 24 10.8 N 13 17 7 9 1014.0 - 0.0
01/04:00pm 26.1 22.3 4.1 24 11.0 N 13 20 7 11 1013.7 - 0.0
01/03:30pm 26.5 22.6 5.2 25 10.9 NNE 15 26 8 14 1013.6 - 0.0
01/03:00pm 26.2 21.6 5.6 26 10.6 N 19 22 10 12 1013.9 1013.8 0.0
01/02:30pm 26.5 22.4 6.1 27 10.6 WNW 17 26 9 14 1014.4 - 0.0
01/02:00pm 26.1 20.8 5.1 26 10.7 NNW 22 30 12 16 1014.8 - 0.0
01/01:30pm 25.7 22.3 5.9 28 10.2 WNW 13 24 7 13 1015.2 - 0.0
01/01:00pm 25.6 21.9 6.3 29 10.0 WNW 15 28 8 15 1016.0 - 0.0
01/12:30pm 24.7 21.3 7.7 33 9.0 WNW 15 28 8 15 1016.5 - 0.0
01/12:00pm 24.3 22.0 9.1 38 8.2 NW 11 17 6 9 1016.9 1016.8 0.0
01/11:30am 23.5 22.1 9.5 41 7.6 WNW 7 19 4 10 1017.5 - 0.0
01/11:00am 23.2 21.7 10.5 44 7.0 N 9 19 5 10 1018.0 - 0.0
01/10:30am 22.6 20.4 10.8 47 6.5 NNW 13 22 7 12 1018.7 - 0.0
01/10:00am 21.1 20.1 12.4 57 4.9 NW 9 17 5 9 1019.1 - 0.0
01/09:30am 20.1 19.7 13.0 63 4.0 WNW 7 13 4 7 1019.6 - 0.0
01/09:00am 19.6 20.2 14.2 71 3.1 W 4 9 2 5 1019.7 1019.6 0.0
01/08:30am 18.0 18.4 13.8 76 2.4 SW 4 7 2 4 1019.8 - 0.0
01/08:00am 16.2 17.3 13.5 84 1.5 CALM 0 7 0 4 1019.8 - 0.0
01/07:30am 14.5 15.4 13.0 91 0.8 CALM 0 2 0 1 1019.3 - 0.0
01/07:13am 13.5 13.6 12.6 94 0.5 WSW 4 7 2 4 1019.2 - 0.0
01/07:00am 12.3 12.8 11.7 96 0.3 CALM 0 0 0 0 1019.1 - 0.0
01/06:30am 10.7 10.8 10.3 97 0.2 CALM 0 0 0 0 1018.7 - 0.0
01/06:00am 11.4 11.7 11.0 97 0.2 CALM 0 0 0 0 1018.7 1018.6 0.0
01/05:45am 11.4 11.7 11.0 97 0.2 CALM 0 0 0 0 1018.6 - 0.0
01/05:42am 11.5 11.8 10.9 96 0.3 CALM 0 0 0 0 1018.6 - 0.0
01/05:30am 11.2 11.4 10.4 95 0.4 CALM 0 0 0 0 1018.6 - 0.0
01/05:10am 12.0 12.4 11.4 96 0.3 CALM 0 0 0 0 1018.3 - 0.0
01/05:00am 12.3 12.8 11.5 95 0.4 CALM 0 0 0 0 1018.1 - 0.0
01/04:30am 13.3 14.1 12.4 94 0.5 CALM 0 0 0 0 1018.0 - 0.0
01/04:00am 13.6 13.6 12.3 92 0.7 NNW 4 6 2 3 1018.0 - 0.0
01/03:30am 14.1 13.6 12.8 92 0.7 NNW 7 9 4 5 1018.0 - 0.0
01/03:00am 14.6 15.5 12.8 89 1.0 CALM 0 0 0 0 1018.1 1018.0 0.0
01/02:30am 14.6 15.6 13.2 91 0.8 CALM 0 0 0 0 1018.2 - 0.0
01/02:00am 14.9 16.0 13.5 91 0.8 CALM 0 0 0 0 1018.3 - 0.0
01/01:30am 15.0 16.1 13.6 91 0.8 CALM 0 0 0 0 1018.5 - 0.0
01/01:00am 14.5 15.4 13.0 91 0.8 CALM 0 0 0 0 1018.5 - 0.0
01/12:30am 14.3 15.2 12.8 91 0.8 CALM 0 0 0 0 1018.6 - 0.0
01/12:00am 14.0 14.8 12.5 91 0.8 CALM 0 0 0 0 1018.7 1018.6 0.0
 
Date/Time
EST
Temp
°C
App
Temp
°C
Dew
Point
Rel
Hum
%
Delta-T
°C
Wind Press
QNH
hPa
Press
MSL
hPa
Rain
since 9 am
mm
Dir
 
Spd
km/h
Gust
km/h
Spd
kts
Gust
kts
31/11:30pm 14.9 15.8 12.9 88 1.1 CALM 0 0 0 0 1018.7 - 0.0
31/11:00pm 15.9 15.9 13.6 86 1.3 S 6 6 3 3 1018.7 - 0.0
31/10:30pm 16.9 16.7 13.5 80 1.9 ESE 7 7 4 4 1018.6 - 0.0
31/10:00pm 17.4 16.8 13.5 78 2.2 E 9 11 5 6 1018.6 - 0.0
31/09:30pm 17.9 17.3 13.5 75 2.5 E 9 9 5 5 1018.5 - 0.0
31/09:00pm 18.4 17.4 13.3 72 2.9 E 11 15 6 8 1018.4 1018.4 0.0
31/08:30pm 18.6 17.1 13.1 70 3.1 ENE 13 19 7 10 1018.3 - 0.0
31/08:00pm 18.7 16.3 12.8 68 3.3 ENE 17 24 9 13 1018.0 - 0.0
31/07:30pm 18.7 15.8 12.2 66 3.6 ENE 19 26 10 14 1017.8 - 0.0
31/07:00pm 18.7 15.6 12.2 66 3.6 ENE 20 30 11 16 1017.2 - 0.0
31/06:30pm 19.3 15.7 11.9 62 4.1 NE 22 30 12 16 1016.8 - 0.0
31/06:00pm 19.8 16.4 11.2 57 4.7 NE 20 30 11 16 1016.4 1016.4 0.0
31/05:30pm 20.6 15.8 10.2 51 5.6 NE 26 33 14 18 1016.0 - 0.0
31/05:00pm 21.7 16.8 9.9 47 6.4 NE 26 32 14 17 1015.6 - 0.0
31/04:30pm 23.9 21.5 8.8 38 8.1 S 11 28 6 15 1015.1 - 0.0
31/04:00pm 24.3 22.5 7.3 33 8.9 SE 6 13 3 7 1014.8 - 0.0
31/03:30pm 25.3 22.6 7.3 31 9.5 SE 11 13 6 7 1014.7 - 0.0
31/03:00pm 25.0 22.8 7.9 33 9.1 E 9 13 5 7 1014.8 1014.8 0.0
31/02:30pm 24.8 23.0 7.8 33 9.0 SSW 7 11 4 6 1014.9 - 0.0
31/02:00pm 25.0 23.4 7.9 33 9.1 W 6 15 3 8 1015.2 - 0.0
31/01:30pm 25.5 22.6 8.1 33 9.3 WNW 13 19 7 10 1015.5 - 0.0
31/01:00pm 24.1 22.4 8.3 36 8.4 SW 7 13 4 7 1016.0 - 0.0
31/12:30pm 23.5 21.8 8.5 38 8.0 WSW 7 17 4 9 1016.5 - 0.0
31/12:00pm 23.5 20.9 7.9 36 8.2 NW 11 19 6 10 1017.0 1017.0 0.0
31/11:30am 22.9 21.3 8.6 40 7.6 S 7 13 4 7 1017.6 - 0.0
31/11:00am 22.1 20.2 8.9 43 7.0 WNW 9 17 5 9 1018.1 - 0.0
31/10:30am 21.3 19.7 8.8 44 6.6 SSE 7 13 4 7 1018.6 - 0.0
31/10:00am 21.5 20.0 9.3 45 6.5 N 7 13 4 7 1018.9 - 0.0

Other Formats:

Comma delimited format used in spreadsheet applications
http://www.bom.gov.au/fwo/IDQ60801/IDQ60801.94568.axf

JavaScript Object Notation format (JSON) in row-major order
http://www.bom.gov.au/fwo/IDQ60801/IDQ60801.94568.json